Time;durP1;ratioP1;P1;durP2;ratioP2;P2;SDS_P1;SDS_P2;PMS_P1;PMS_P2;Temp;Humidity;BMP_temperature;BMP_pressure;BME280_temperature;BME280_humidity;BME280_pressure;Samples;Min_cycle;Max_cycle;Signal;HPM_P1;HPM_P2
2023/04/06 00:00:01;;;;;;;7.90;3.92;;;;;;;;;;5014281;28;20018;-73
2023/04/06 00:02:26;;;;;;;6.40;3.65;;;;;;;;;;5016054;28;20025;-73
2023/04/06 00:04:52;;;;;;;10.93;3.97;;;;;;;;;;5016208;28;20083;-73
2023/04/06 00:07:17;;;;;;;8.73;3.88;;;;;;;;;;5015925;28;20025;-74
2023/04/06 00:09:42;;;;;;;5.15;3.35;;;;;;;;;;5016049;28;20087;-73
2023/04/06 00:12:07;;;;;;;6.20;3.45;;;;;;;;;;5015833;28;20022;-73
2023/04/06 00:14:33;;;;;;;6.07;3.20;;;;;;;;;;5016011;28;20032;-73
2023/04/06 00:16:58;;;;;;;6.07;3.47;;;;;;;;;;5015761;28;20057;-73
2023/04/06 00:19:23;;;;;;;7.60;3.72;;;;;;;;;;5015698;28;20030;-73
2023/04/06 00:21:48;;;;;;;6.93;3.50;;;;;;;;;;5015639;28;20488;-73
2023/04/06 00:24:13;;;;;;;7.60;3.58;;;;;;;;;;5015723;28;20029;-73
2023/04/06 00:26:39;;;;;;;6.90;3.15;;;;;;;;;;5016093;28;20105;-73
2023/04/06 00:29:04;;;;;;;6.28;3.33;;;;;;;;;;5015884;28;20049;-73
2023/04/06 00:31:29;;;;;;;7.20;3.38;;;;;;;;;;5014425;28;20022;-72
2023/04/06 00:33:54;;;;;;;4.55;3.10;;;;;;;;;;5015577;28;20025;-73
2023/04/06 00:36:20;;;;;;;5.90;3.20;;;;;;;;;;5015648;28;20026;-72
2023/04/06 00:38:45;;;;;;;6.63;3.33;;;;;;;;;;4998125;28;20100;-73
2023/04/06 00:41:11;;;;;;;6.10;3.50;;;;;;;;;;5015466;28;20263;-73
2023/04/06 00:43:36;;;;;;;9.57;3.10;;;;;;;;;;5015683;28;20259;-73
2023/04/06 00:46:01;;;;;;;6.53;3.25;;;;;;;;;;4998049;28;20524;-73
2023/04/06 00:48:27;;;;;;;4.75;2.95;;;;;;;;;;5015343;28;20088;-73
2023/04/06 00:50:52;;;;;;;6.53;3.17;;;;;;;;;;5015539;28;20026;-72
2023/04/06 00:53:17;;;;;;;5.22;3.33;;;;;;;;;;5015173;28;20029;-73
2023/04/06 00:55:42;;;;;;;4.65;3.00;;;;;;;;;;5015452;28;20022;-73
2023/04/06 00:58:08;;;;;;;5.60;2.93;;;;;;;;;;5015685;28;20508;-73
2023/04/06 01:00:33;;;;;;;9.70;3.38;;;;;;;;;;5013557;28;20717;-73
2023/04/06 01:02:58;;;;;;;6.68;3.10;;;;;;;;;;5015019;28;20370;-73
2023/04/06 01:05:23;;;;;;;6.20;3.30;;;;;;;;;;5014891;28;20034;-73
2023/04/06 01:07:49;;;;;;;5.60;3.03;;;;;;;;;;4997341;28;20025;-73
2023/04/06 01:10:28;;;;;;;9.47;3.13;;;;;;;;;;5014576;28;20033;-73
2023/04/06 01:12:53;;;;;;;5.22;2.95;;;;;;;;;;4996888;28;20267;-73
2023/04/06 01:15:20;;;;;;;5.53;2.65;;;;;;;;;;4997191;28;20026;-73
2023/04/06 01:17:45;;;;;;;8.65;3.28;;;;;;;;;;5014951;28;20041;-73
2023/04/06 01:20:11;;;;;;;6.38;2.83;;;;;;;;;;5014912;28;20021;-73
2023/04/06 01:22:36;;;;;;;5.05;2.70;;;;;;;;;;4997069;28;20080;-73
2023/04/06 01:25:01;;;;;;;5.07;3.05;;;;;;;;;;5014656;28;20034;-72
2023/04/06 01:27:27;;;;;;;7.68;3.30;;;;;;;;;;5014569;28;20022;-73
2023/04/06 01:29:53;;;;;;;6.03;3.45;;;;;;;;;;5014763;28;20026;-72
2023/04/06 01:32:18;;;;;;;5.03;2.88;;;;;;;;;;4997091;28;20026;-73
2023/04/06 01:34:43;;;;;;;5.05;2.88;;;;;;;;;;5014107;28;20061;-73
2023/04/06 01:37:09;;;;;;;4.77;2.87;;;;;;;;;;4996704;28;20026;-73
2023/04/06 01:39:34;;;;;;;5.72;3.00;;;;;;;;;;5014207;28;20263;-73
2023/04/06 01:41:59;;;;;;;6.00;3.60;;;;;;;;;;5014239;28;20021;-74
2023/04/06 01:44:25;;;;;;;6.50;3.10;;;;;;;;;;4996490;28;20026;-74
2023/04/06 01:46:50;;;;;;;7.07;3.28;;;;;;;;;;5014073;28;20076;-73
2023/04/06 01:49:15;;;;;;;7.32;3.83;;;;;;;;;;4996348;28;20033;-73
2023/04/06 01:51:40;;;;;;;5.22;3.35;;;;;;;;;;5013916;28;20482;-73
2023/04/06 01:54:06;;;;;;;9.23;3.50;;;;;;;;;;5014012;28;20512;-74
2023/04/06 01:56:31;;;;;;;7.68;3.47;;;;;;;;;;5013823;28;20030;-73
2023/04/06 01:58:56;;;;;;;6.50;2.95;;;;;;;;;;4996302;28;20485;-72
2023/04/06 02:01:21;;;;;;;8.23;3.40;;;;;;;;;;5014136;28;20473;-72
2023/04/06 02:03:47;;;;;;;6.00;3.33;;;;;;;;;;5014126;28;20022;-73
2023/04/06 02:06:12;;;;;;;5.70;2.92;;;;;;;;;;5014152;28;20101;-72
2023/04/06 02:08:37;;;;;;;7.80;3.60;;;;;;;;;;5013851;28;20097;-72
2023/04/06 02:11:02;;;;;;;6.10;3.30;;;;;;;;;;5013688;28;20504;-74
2023/04/06 02:13:28;;;;;;;7.13;3.50;;;;;;;;;;4996228;28;20754;-74
2023/04/06 02:15:53;;;;;;;5.10;3.28;;;;;;;;;;5014144;28;20065;-73
2023/04/06 02:18:18;;;;;;;7.55;3.50;;;;;;;;;;5013568;28;20092;-72
2023/04/06 02:20:44;;;;;;;8.73;3.72;;;;;;;;;;5013480;28;20087;-74
2023/04/06 02:23:09;;;;;;;6.50;3.60;;;;;;;;;;5013375;28;20038;-73
2023/04/06 02:25:34;;;;;;;5.93;3.70;;;;;;;;;;4995849;28;20025;-74
2023/04/06 02:28:00;;;;;;;8.10;4.18;;;;;;;;;;5013478;28;20116;-73
2023/04/06 02:30:25;;;;;;;11.27;4.45;;;;;;;;;;5013293;28;20026;-72
2023/04/06 02:32:50;;;;;;;11.13;4.55;;;;;;;;;;5013642;28;20029;-73
2023/04/06 02:35:15;;;;;;;11.80;5.05;;;;;;;;;;5012009;28;20029;-73
2023/04/06 02:37:41;;;;;;;8.27;4.65;;;;;;;;;;5013500;28;20113;-73
2023/04/06 02:40:06;;;;;;;12.82;5.57;;;;;;;;;;5013796;28;20025;-74
2023/04/06 02:42:32;;;;;;;14.60;6.13;;;;;;;;;;5013342;28;20038;-73
2023/04/06 02:44:57;;;;;;;15.65;6.43;;;;;;;;;;5013410;28;20037;-74
2023/04/06 02:47:23;;;;;;;13.52;6.10;;;;;;;;;;5013470;28;20037;-74
2023/04/06 02:49:48;;;;;;;10.57;4.60;;;;;;;;;;5013458;28;20025;-73
2023/04/06 02:52:13;;;;;;;8.23;4.43;;;;;;;;;;5013329;28;20025;-73
2023/04/06 02:54:38;;;;;;;7.28;3.65;;;;;;;;;;5013669;28;20033;-74
2023/04/06 02:57:03;;;;;;;6.93;3.28;;;;;;;;;;5013159;28;20125;-74
2023/04/06 02:59:29;;;;;;;8.80;4.22;;;;;;;;;;5013384;28;20108;-73
2023/04/06 03:01:54;;;;;;;6.47;3.47;;;;;;;;;;5012970;28;20014;-73
2023/04/06 03:04:22;;;;;;;6.65;3.47;;;;;;;;;;5013021;28;20018;-73
2023/04/06 03:06:47;;;;;;;8.60;3.80;;;;;;;;;;5012908;28;20485;-73
2023/04/06 03:09:13;;;;;;;7.43;3.45;;;;;;;;;;5013044;28;20091;-73
2023/04/06 03:11:39;;;;;;;5.28;3.28;;;;;;;;;;5012942;28;20442;-72
2023/04/06 03:14:04;;;;;;;8.35;3.85;;;;;;;;;;4995318;28;20090;-72
2023/04/06 03:16:29;;;;;;;9.77;4.05;;;;;;;;;;5013164;28;20080;-73
2023/04/06 03:18:55;;;;;;;6.70;3.58;;;;;;;;;;5012867;28;20026;-73
2023/04/06 03:21:20;;;;;;;7.03;3.85;;;;;;;;;;5012924;28;20018;-73
2023/04/06 03:23:45;;;;;;;10.82;4.10;;;;;;;;;;5012915;28;20030;-73
2023/04/06 03:26:11;;;;;;;7.60;4.20;;;;;;;;;;5012851;28;20062;-73
2023/04/06 03:28:36;;;;;;;8.60;3.47;;;;;;;;;;5013124;28;20034;-72
2023/04/06 03:31:01;;;;;;;9.32;4.00;;;;;;;;;;5012671;28;20450;-74
2023/04/06 03:33:29;;;;;;;11.18;4.50;;;;;;;;;;5012916;28;20026;-73
2023/04/06 03:35:54;;;;;;;6.07;3.50;;;;;;;;;;5016624;28;20041;-73
2023/04/06 03:38:20;;;;;;;9.43;4.03;;;;;;;;;;5016573;28;20026;-73
2023/04/06 03:40:45;;;;;;;7.25;4.10;;;;;;;;;;5016336;28;20499;-73
2023/04/06 03:43:10;;;;;;;9.40;4.18;;;;;;;;;;5016481;28;20025;-73
2023/04/06 03:45:36;;;;;;;8.20;3.85;;;;;;;;;;5016407;28;20117;-74
2023/04/06 03:48:01;;;;;;;6.50;3.53;;;;;;;;;;4998737;28;20068;-73
2023/04/06 03:50:26;;;;;;;9.95;3.72;;;;;;;;;;5016586;28;20062;-73
2023/04/06 03:52:51;;;;;;;6.53;3.75;;;;;;;;;;5016720;28;20064;-73
2023/04/06 03:55:16;;;;;;;7.68;4.05;;;;;;;;;;5016778;28;20026;-72
2023/04/06 03:57:42;;;;;;;12.13;3.85;;;;;;;;;;5016272;28;20436;-73
2023/04/06 04:00:07;;;;;;;8.55;4.05;;;;;;;;;;5016147;28;20034;-72
2023/04/06 04:02:33;;;;;;;7.85;3.83;;;;;;;;;;4998537;28;20109;-73
2023/04/06 04:04:58;;;;;;;8.27;4.28;;;;;;;;;;5016034;28;20029;-73
2023/04/06 04:07:23;;;;;;;8.43;4.18;;;;;;;;;;5016079;28;20026;-73
2023/04/06 04:09:48;;;;;;;7.93;3.75;;;;;;;;;;5016491;28;20030;-73
2023/04/06 04:12:15;;;;;;;13.05;4.15;;;;;;;;;;5015850;28;20030;-73
2023/04/06 04:14:40;;;;;;;7.10;3.78;;;;;;;;;;5016071;28;20028;-72
2023/04/06 04:17:05;;;;;;;6.00;3.42;;;;;;;;;;5014536;28;20120;-73
2023/04/06 04:19:30;;;;;;;8.48;3.40;;;;;;;;;;5015751;28;20109;-73
2023/04/06 04:21:56;;;;;;;8.48;3.80;;;;;;;;;;5015619;28;20113;-73
2023/04/06 04:24:21;;;;;;;7.78;3.38;;;;;;;;;;5015637;28;20065;-73
2023/04/06 04:26:46;;;;;;;7.90;4.07;;;;;;;;;;5015881;28;20122;-73
2023/04/06 04:29:11;;;;;;;8.38;3.95;;;;;;;;;;4998072;28;20051;-73
2023/04/06 04:31:36;;;;;;;7.30;4.00;;;;;;;;;;5015429;28;20493;-72
2023/04/06 04:34:02;;;;;;;12.75;3.80;;;;;;;;;;4997759;28;20075;-73
2023/04/06 04:36:27;;;;;;;8.15;4.30;;;;;;;;;;5015664;28;20113;-73
2023/04/06 04:38:52;;;;;;;7.53;3.63;;;;;;;;;;5014182;28;20111;-73
2023/04/06 04:41:18;;;;;;;12.73;4.30;;;;;;;;;;4997778;28;20050;-73
2023/04/06 04:43:43;;;;;;;10.82;4.00;;;;;;;;;;5015503;28;20485;-72
2023/04/06 04:46:08;;;;;;;8.35;4.32;;;;;;;;;;5014694;28;20106;-72
2023/04/06 04:48:34;;;;;;;11.20;4.18;;;;;;;;;;5015500;28;20069;-73
2023/04/06 04:50:59;;;;;;;11.18;4.10;;;;;;;;;;5013906;28;20076;-72
2023/04/06 04:53:25;;;;;;;11.32;4.00;;;;;;;;;;5016685;28;20022;-74
2023/04/06 04:55:50;;;;;;;8.57;4.00;;;;;;;;;;5015732;28;20026;-73
2023/04/06 04:58:16;;;;;;;11.15;4.13;;;;;;;;;;5015215;28;20516;-73
2023/04/06 05:00:44;;;;;;;8.90;3.83;;;;;;;;;;5014786;28;20022;-73
2023/04/06 05:03:17;;;;;;;7.55;3.80;;;;;;;;;;5014874;28;20023;-72
2023/04/06 05:05:43;;;;;;;8.38;4.15;;;;;;;;;;5015100;28;20041;-73
2023/04/06 05:08:08;;;;;;;11.07;4.50;;;;;;;;;;5015303;28;20401;-73
2023/04/06 05:10:35;;;;;;;11.13;4.25;;;;;;;;;;5014564;28;20515;-73
2023/04/06 05:13:00;;;;;;;8.23;4.05;;;;;;;;;;4997524;28;20429;-73
2023/04/06 05:15:25;;;;;;;7.82;4.03;;;;;;;;;;5014947;28;20079;-73
2023/04/06 05:17:50;;;;;;;10.70;4.28;;;;;;;;;;5014879;28;20021;-73
2023/04/06 05:20:16;;;;;;;6.55;3.80;;;;;;;;;;5014599;28;20105;-73
2023/04/06 05:22:41;;;;;;;6.55;3.78;;;;;;;;;;5014480;28;20029;-73
2023/04/06 05:25:07;;;;;;;7.88;3.95;;;;;;;;;;4996888;28;20037;-73
2023/04/06 05:27:32;;;;;;;7.47;4.13;;;;;;;;;;5014297;28;20378;-73
2023/04/06 05:29:57;;;;;;;7.68;3.95;;;;;;;;;;5014152;28;20017;-72
2023/04/06 05:32:24;;;;;;;8.43;4.03;;;;;;;;;;5014377;28;20473;-72
2023/04/06 05:34:49;;;;;;;10.93;4.32;;;;;;;;;;4996604;28;20022;-73
2023/04/06 05:37:15;;;;;;;11.65;4.30;;;;;;;;;;5013342;28;20030;-73
2023/04/06 05:39:40;;;;;;;10.52;4.15;;;;;;;;;;5013904;28;20026;-73
2023/04/06 05:42:06;;;;;;;10.95;4.28;;;;;;;;;;4996474;28;20405;-73
2023/04/06 05:44:31;;;;;;;8.32;4.07;;;;;;;;;;5014167;28;20397;-73
2023/04/06 05:46:56;;;;;;;11.13;4.88;;;;;;;;;;5014101;28;20441;-73
2023/04/06 05:49:22;;;;;;;9.88;4.70;;;;;;;;;;5014049;28;20032;-73
2023/04/06 05:51:47;;;;;;;9.73;4.60;;;;;;;;;;5014005;28;20035;-74
2023/04/06 05:54:12;;;;;;;8.45;4.40;;;;;;;;;;4996634;28;20129;-73
2023/04/06 05:56:37;;;;;;;7.97;3.70;;;;;;;;;;4996315;28;20120;-72
2023/04/06 05:59:03;;;;;;;7.72;4.05;;;;;;;;;;5014284;28;20338;-74
2023/04/06 06:01:28;;;;;;;12.10;4.28;;;;;;;;;;5013955;28;20032;-73
2023/04/06 06:03:54;;;;;;;8.88;4.60;;;;;;;;;;5013843;28;20503;-73
2023/04/06 06:06:19;;;;;;;11.68;4.43;;;;;;;;;;5014333;28;20516;-73
2023/04/06 06:08:45;;;;;;;6.55;3.47;;;;;;;;;;4996837;28;20022;-74
2023/04/06 06:11:10;;;;;;;9.20;4.18;;;;;;;;;;5013900;28;20037;-74
2023/04/06 06:13:36;;;;;;;8.13;4.18;;;;;;;;;;5013770;28;20393;-73
2023/04/06 06:16:04;;;;;;;7.57;4.05;;;;;;;;;;5013737;28;20048;-76
2023/04/06 06:18:30;;;;;;;7.38;4.18;;;;;;;;;;5013834;28;20481;-74
2023/04/06 06:20:55;;;;;;;6.63;4.00;;;;;;;;;;4995800;28;20107;-74
2023/04/06 06:23:20;;;;;;;7.70;3.67;;;;;;;;;;5013530;28;20032;-74
2023/04/06 06:25:46;;;;;;;12.02;3.50;;;;;;;;;;5013800;28;20018;-74
2023/04/06 06:28:11;;;;;;;7.10;4.18;;;;;;;;;;5013698;28;20022;-74
2023/04/06 06:30:36;;;;;;;7.40;4.00;;;;;;;;;;5013350;28;20084;-73
2023/04/06 06:33:01;;;;;;;6.27;3.60;;;;;;;;;;5013563;28;20247;-74
2023/04/06 06:35:27;;;;;;;7.47;3.95;;;;;;;;;;5014129;28;20263;-73
2023/04/06 06:37:52;;;;;;;5.20;3.15;;;;;;;;;;5013767;28;20489;-74
2023/04/06 06:40:17;;;;;;;10.57;3.90;;;;;;;;;;5013866;28;20083;-74
2023/04/06 06:42:42;;;;;;;12.45;4.43;;;;;;;;;;5013613;28;20262;-73
2023/04/06 06:45:09;;;;;;;7.43;3.95;;;;;;;;;;5013469;28;20022;-74
2023/04/06 06:47:35;;;;;;;8.82;4.10;;;;;;;;;;5013152;28;20034;-77
2023/04/06 06:50:00;;;;;;;10.27;4.13;;;;;;;;;;5013015;28;20030;-74
2023/04/06 06:52:26;;;;;;;9.10;4.13;;;;;;;;;;4996377;28;20018;-74
2023/04/06 06:54:51;;;;;;;29.38;5.13;;;;;;;;;;5013117;28;20026;-74
2023/04/06 06:57:16;;;;;;;12.30;4.17;;;;;;;;;;5013343;28;20045;-73
2023/04/06 06:59:41;;;;;;;8.67;3.93;;;;;;;;;;4995741;28;20275;-73
2023/04/06 07:02:06;;;;;;;9.57;3.87;;;;;;;;;;5013209;28;20274;-73
2023/04/06 07:04:32;;;;;;;8.55;4.15;;;;;;;;;;5013591;28;20255;-73
2023/04/06 07:06:57;;;;;;;8.15;4.10;;;;;;;;;;4995319;28;20033;-73
2023/04/06 07:09:22;;;;;;;11.63;4.85;;;;;;;;;;5013537;28;20557;-73
2023/04/06 07:11:48;;;;;;;7.95;4.30;;;;;;;;;;4999036;28;20489;-73
2023/04/06 07:14:15;;;;;;;6.53;3.53;;;;;;;;;;5015827;28;20393;-73
2023/04/06 07:16:41;;;;;;;7.57;3.90;;;;;;;;;;5015608;28;20047;-73
2023/04/06 07:19:06;;;;;;;10.73;4.57;;;;;;;;;;5016851;28;20521;-73
2023/04/06 07:21:31;;;;;;;12.73;4.57;;;;;;;;;;5017167;28;20028;-73
2023/04/06 07:23:56;;;;;;;9.30;4.22;;;;;;;;;;5016825;28;20030;-73
2023/04/06 07:26:22;;;;;;;10.48;3.97;;;;;;;;;;5016723;28;20108;-73
2023/04/06 07:28:47;;;;;;;9.83;4.67;;;;;;;;;;5017100;28;20038;-73
2023/04/06 07:31:12;;;;;;;8.60;3.93;;;;;;;;;;5016033;28;20286;-77
2023/04/06 07:33:37;;;;;;;9.52;3.85;;;;;;;;;;4998708;28;20263;-74
2023/04/06 07:36:03;;;;;;;8.63;4.20;;;;;;;;;;4997639;28;20033;-74
2023/04/06 07:38:28;;;;;;;10.40;4.30;;;;;;;;;;5016052;28;20029;-74
2023/04/06 07:40:53;;;;;;;9.98;4.50;;;;;;;;;;5015806;28;20037;-73
2023/04/06 07:43:18;;;;;;;7.78;3.63;;;;;;;;;;5016244;28;20572;-75
2023/04/06 07:45:44;;;;;;;9.30;4.23;;;;;;;;;;4998484;28;20456;-74
2023/04/06 07:48:09;;;;;;;7.85;4.13;;;;;;;;;;5016498;28;20662;-73
2023/04/06 07:50:35;;;;;;;7.13;4.07;;;;;;;;;;5016458;28;20026;-74
2023/04/06 07:53:00;;;;;;;6.38;3.65;;;;;;;;;;5016311;28;20053;-74
2023/04/06 07:55:26;;;;;;;8.43;3.78;;;;;;;;;;5017617;28;20053;-75
2023/04/06 07:57:51;;;;;;;8.88;4.07;;;;;;;;;;5016845;28;20022;-75
2023/04/06 08:00:16;;;;;;;8.25;3.90;;;;;;;;;;5016708;28;20095;-75
2023/04/06 08:02:42;;;;;;;8.88;3.67;;;;;;;;;;5016574;28;20022;-76
2023/04/06 08:05:08;;;;;;;7.72;3.78;;;;;;;;;;5017880;28;20491;-74
2023/04/06 08:07:33;;;;;;;7.57;4.00;;;;;;;;;;5017177;28;20022;-74
2023/04/06 08:09:58;;;;;;;5.22;3.55;;;;;;;;;;5018357;28;20428;-78
2023/04/06 08:12:23;;;;;;;7.53;3.83;;;;;;;;;;5016683;28;20037;-74
2023/04/06 08:14:49;;;;;;;6.85;4.05;;;;;;;;;;5017146;28;20026;-77
2023/04/06 08:17:14;;;;;;;9.02;4.18;;;;;;;;;;5016495;28;20037;-75
2023/04/06 08:19:41;;;;;;;7.10;3.83;;;;;;;;;;5015985;28;20121;-74
2023/04/06 08:22:06;;;;;;;7.00;3.45;;;;;;;;;;5015997;28;20259;-76
2023/04/06 08:24:32;;;;;;;6.40;3.30;;;;;;;;;;5014390;28;20535;-74
2023/04/06 08:26:57;;;;;;;7.00;3.50;;;;;;;;;;5015530;28;20330;-74
2023/04/06 08:29:22;;;;;;;6.97;3.80;;;;;;;;;;5015567;28;20029;-74
2023/04/06 08:31:48;;;;;;;7.50;4.25;;;;;;;;;;5015607;28;20049;-80
2023/04/06 08:34:13;;;;;;;5.60;3.05;;;;;;;;;;4998231;28;20440;-74
2023/04/06 08:36:38;;;;;;;8.00;3.20;;;;;;;;;;5015999;28;20417;-73
2023/04/06 08:39:03;;;;;;;7.77;3.43;;;;;;;;;;5015294;28;20915;-74
2023/04/06 08:41:28;;;;;;;5.10;3.10;;;;;;;;;;5015173;28;20630;-74
2023/04/06 08:44:01;;;;;;;5.82;3.40;;;;;;;;;;5015477;28;20669;-75
2023/04/06 08:46:31;;;;;;;6.28;3.33;;;;;;;;;;4997632;28;20485;-75
2023/04/06 08:49:20;;;;;;;7.88;3.25;;;;;;;;;;5016095;28;20030;-83
2023/04/06 08:51:47;;;;;;;6.68;3.70;;;;;;;;;;5017427;28;20030;-74
2023/04/06 08:54:12;;;;;;;7.75;3.75;;;;;;;;;;5015523;28;20117;-76
2023/04/06 08:56:38;;;;;;;6.65;3.45;;;;;;;;;;5015204;28;20080;-74
2023/04/06 08:59:05;;;;;;;6.72;3.72;;;;;;;;;;5013897;28;20576;-75
2023/04/06 09:01:30;;;;;;;4.93;3.13;;;;;;;;;;4997458;28;20068;-76
2023/04/06 09:03:59;;;;;;;6.88;3.75;;;;;;;;;;4997508;28;20065;-76
2023/04/06 09:06:28;;;;;;;11.20;3.15;;;;;;;;;;4997409;28;20034;-76
2023/04/06 09:08:54;;;;;;;4.65;3.00;;;;;;;;;;5014936;28;20512;-75
2023/04/06 09:13:15;;;;;;;5.63;2.97;;;;;;;;;;5071308;28;20388;-75
2023/04/06 09:15:40;;;;;;;5.13;3.15;;;;;;;;;;5070522;28;20377;-75
2023/04/06 09:18:05;;;;;;;6.47;3.53;;;;;;;;;;5070338;28;20031;-75
2023/04/06 09:20:30;;;;;;;5.85;2.80;;;;;;;;;;5070438;28;20262;-75
2023/04/06 09:22:56;;;;;;;5.43;3.40;;;;;;;;;;5068829;28;20028;-78
2023/04/06 09:25:23;;;;;;;4.30;3.17;;;;;;;;;;5070419;28;20498;-76
2023/04/06 09:27:49;;;;;;;5.10;2.92;;;;;;;;;;5068971;28;20511;-75
2023/04/06 09:30:16;;;;;;;5.93;3.15;;;;;;;;;;5067985;28;20056;-75
2023/04/06 09:32:50;;;;;;;6.75;3.40;;;;;;;;;;5067917;28;20025;-77
2023/04/06 09:35:16;;;;;;;5.57;3.20;;;;;;;;;;5068865;28;20123;-75
2023/04/06 09:37:43;;;;;;;7.15;2.90;;;;;;;;;;5069147;28;20033;-75
2023/04/06 09:40:09;;;;;;;5.93;3.03;;;;;;;;;;5070938;28;20036;-75
2023/04/06 09:42:35;;;;;;;11.10;3.10;;;;;;;;;;5069146;28;20533;-75
2023/04/06 09:45:03;;;;;;;4.97;2.78;;;;;;;;;;5070219;28;20068;-75
2023/04/06 09:47:30;;;;;;;3.33;2.15;;;;;;;;;;5069954;28;20021;-76
2023/04/06 09:49:58;;;;;;;5.22;2.70;;;;;;;;;;5069724;28;20028;-76
2023/04/06 09:52:27;;;;;;;4.40;2.20;;;;;;;;;;5069583;28;20024;-76
2023/04/06 09:54:57;;;;;;;4.35;2.72;;;;;;;;;;5069543;28;20029;-76
2023/04/06 09:57:28;;;;;;;7.05;2.80;;;;;;;;;;5069560;28;20503;-76
2023/04/06 10:00:00;;;;;;;3.90;2.72;;;;;;;;;;5069612;28;20043;-76
2023/04/06 10:02:34;;;;;;;10.23;2.63;;;;;;;;;;5068801;28;20492;-75
2023/04/06 10:05:12;;;;;;;6.60;2.58;;;;;;;;;;5070116;28;20135;-75
2023/04/06 10:07:39;;;;;;;4.45;2.72;;;;;;;;;;5070379;28;20067;-76
2023/04/06 10:10:05;;;;;;;3.38;2.38;;;;;;;;;;5069325;28;20040;-76
2023/04/06 10:12:31;;;;;;;3.65;2.25;;;;;;;;;;5069500;28;20472;-76
2023/04/06 10:14:57;;;;;;;3.90;2.38;;;;;;;;;;5069588;28;20033;-76
2023/04/06 10:17:24;;;;;;;4.13;2.38;;;;;;;;;;5069757;28;20035;-76
2023/04/06 10:19:57;;;;;;;5.85;2.50;;;;;;;;;;5069281;28;20016;-76
2023/04/06 10:22:36;;;;;;;3.75;2.40;;;;;;;;;;5068590;28;20025;-76
2023/04/06 10:25:01;;;;;;;3.85;2.50;;;;;;;;;;5055652;28;20431;-76
2023/04/06 10:27:28;;;;;;;5.15;2.65;;;;;;;;;;5055786;28;20021;-76
2023/04/06 10:29:54;;;;;;;5.68;2.67;;;;;;;;;;5054511;28;20112;-76
2023/04/06 10:32:19;;;;;;;3.60;2.42;;;;;;;;;;5056042;28;20112;-76
2023/04/06 10:34:44;;;;;;;4.45;2.40;;;;;;;;;;5055569;28;20033;-76
2023/04/06 10:37:18;;;;;;;11.45;2.65;;;;;;;;;;5055806;28;20438;-75
2023/04/06 10:40:02;;;;;;;5.80;2.80;;;;;;;;;;5055841;28;20369;-76
2023/04/06 10:42:38;;;;;;;5.20;2.45;;;;;;;;;;5054481;28;20021;-76
2023/04/06 10:45:07;;;;;;;5.63;2.92;;;;;;;;;;5055718;28;20104;-76
2023/04/06 10:47:40;;;;;;;4.53;2.80;;;;;;;;;;5056338;28;20017;-76
2023/04/06 10:50:06;;;;;;;3.90;2.70;;;;;;;;;;5054222;28;20036;-75
2023/04/06 10:52:31;;;;;;;5.03;2.50;;;;;;;;;;5055767;28;20021;-75
2023/04/06 10:54:56;;;;;;;4.60;2.70;;;;;;;;;;5055435;28;20599;-76
2023/04/06 10:57:30;;;;;;;4.22;2.20;;;;;;;;;;5055210;28;20293;-75
2023/04/06 10:59:55;;;;;;;3.42;2.28;;;;;;;;;;5055194;28;20027;-76
2023/04/06 11:02:21;;;;;;;3.85;2.55;;;;;;;;;;5054821;28;20021;-76
2023/04/06 11:04:55;;;;;;;3.03;1.90;;;;;;;;;;5054951;28;20044;-76
2023/04/06 11:07:25;;;;;;;4.90;2.15;;;;;;;;;;5055118;28;20025;-75
2023/04/06 11:09:50;;;;;;;1.90;1.70;;;;;;;;;;5054896;28;20405;-75
2023/04/06 11:12:26;;;;;;;4.70;2.20;;;;;;;;;;5054630;28;20036;-75
2023/04/06 11:15:04;;;;;;;4.25;2.20;;;;;;;;;;5054961;28;20111;-77
2023/04/06 11:17:31;;;;;;;3.50;2.13;;;;;;;;;;5055103;28;20027;-76
2023/04/06 11:19:57;;;;;;;4.05;2.33;;;;;;;;;;5053705;28;20503;-75
2023/04/06 11:22:23;;;;;;;7.57;2.50;;;;;;;;;;5054548;28;20057;-75
2023/04/06 11:24:48;;;;;;;3.45;2.25;;;;;;;;;;5054602;28;20546;-75
2023/04/06 11:27:15;;;;;;;4.78;2.30;;;;;;;;;;5053440;28;20029;-75
2023/04/06 11:29:41;;;;;;;3.13;2.20;;;;;;;;;;5054544;28;20032;-75
2023/04/06 11:32:08;;;;;;;3.80;2.40;;;;;;;;;;5054351;28;20469;-75
2023/04/06 11:34:36;;;;;;;3.65;2.17;;;;;;;;;;5053661;28;20063;-75
2023/04/06 11:37:05;;;;;;;3.78;2.60;;;;;;;;;;5052983;28;20032;-75
2023/04/06 11:39:32;;;;;;;3.33;2.35;;;;;;;;;;5054286;28;20064;-75
2023/04/06 11:41:59;;;;;;;4.38;2.45;;;;;;;;;;5054060;28;20027;-75
2023/04/06 11:44:39;;;;;;;5.43;2.60;;;;;;;;;;5054110;28;20099;-76
2023/04/06 11:47:07;;;;;;;3.85;2.38;;;;;;;;;;5053123;28;20025;-75
2023/04/06 11:49:36;;;;;;;4.47;2.45;;;;;;;;;;5053328;28;20025;-75
2023/04/06 11:52:02;;;;;;;4.00;2.63;;;;;;;;;;5054262;28;20024;-75
2023/04/06 11:54:37;;;;;;;4.85;2.55;;;;;;;;;;5054086;28;20044;-75
2023/04/06 11:57:05;;;;;;;5.20;2.30;;;;;;;;;;5052818;28;20549;-76
2023/04/06 11:59:34;;;;;;;4.65;2.90;;;;;;;;;;5054045;28;20480;-75
2023/04/06 12:02:02;;;;;;;4.35;2.63;;;;;;;;;;5053754;28;20031;-75
2023/04/06 12:04:27;;;;;;;5.05;2.50;;;;;;;;;;5054489;28;20025;-75
2023/04/06 12:06:52;;;;;;;3.65;2.70;;;;;;;;;;5054064;28;20029;-76
2023/04/06 12:09:18;;;;;;;4.20;2.70;;;;;;;;;;5053708;28;20120;-75
2023/04/06 12:11:43;;;;;;;3.65;2.50;;;;;;;;;;5053564;28;20029;-75
2023/04/06 12:14:08;;;;;;;4.90;2.40;;;;;;;;;;5052565;28;20526;-76
2023/04/06 12:16:35;;;;;;;4.30;2.42;;;;;;;;;;5053877;28;20032;-76
2023/04/06 12:19:01;;;;;;;4.13;2.35;;;;;;;;;;5053661;28;20027;-76
2023/04/06 12:21:33;;;;;;;4.45;2.40;;;;;;;;;;5052276;28;20036;-76
2023/04/06 12:23:59;;;;;;;3.17;2.28;;;;;;;;;;5053860;28;20553;-76
2023/04/06 12:26:24;;;;;;;3.33;2.30;;;;;;;;;;5053926;28;20485;-75
2023/04/06 12:28:50;;;;;;;3.47;2.35;;;;;;;;;;5052059;28;20036;-75
2023/04/06 12:31:19;;;;;;;5.40;2.70;;;;;;;;;;5053380;28;20021;-75
2023/04/06 12:33:51;;;;;;;4.38;2.30;;;;;;;;;;5053374;28;20029;-75
2023/04/06 12:36:21;;;;;;;7.60;1.67;;;;;;;;;;5053353;28;20108;-77
2023/04/06 12:38:50;;;;;;;3.08;1.55;;;;;;;;;;5053073;28;20053;-76
2023/04/06 12:41:16;;;;;;;4.13;2.33;;;;;;;;;;5053046;28;20423;-77
2023/04/06 12:43:42;;;;;;;3.95;2.08;;;;;;;;;;5051926;28;20083;-75
2023/04/06 12:46:08;;;;;;;2.83;2.05;;;;;;;;;;5052975;28;20060;-75
2023/04/06 12:48:33;;;;;;;7.85;2.40;;;;;;;;;;5051871;28;20021;-76
2023/04/06 12:51:01;;;;;;;3.47;2.30;;;;;;;;;;5053166;28;20051;-76
2023/04/06 12:53:27;;;;;;;3.88;2.03;;;;;;;;;;5053090;28;20029;-76
2023/04/06 12:55:56;;;;;;;3.30;2.35;;;;;;;;;;5051891;28;20143;-77
2023/04/06 12:58:22;;;;;;;7.05;2.30;;;;;;;;;;5052973;28;20032;-76
2023/04/06 13:00:49;;;;;;;5.22;2.20;;;;;;;;;;5052922;28;20029;-75
2023/04/06 13:03:15;;;;;;;3.00;2.10;;;;;;;;;;5053115;28;20021;-76
2023/04/06 13:05:44;;;;;;;3.47;2.38;;;;;;;;;;5052898;28;20404;-76
2023/04/06 13:08:10;;;;;;;5.85;2.88;;;;;;;;;;5053207;28;20032;-76
2023/04/06 13:10:35;;;;;;;3.80;2.72;;;;;;;;;;5053006;28;20384;-76
2023/04/06 13:13:00;;;;;;;5.47;2.53;;;;;;;;;;5053037;28;20036;-75
2023/04/06 13:15:25;;;;;;;3.37;2.47;;;;;;;;;;5053028;28;20266;-75
2023/04/06 13:17:50;;;;;;;4.70;2.60;;;;;;;;;;5053292;28;20266;-75
2023/04/06 13:20:16;;;;;;;3.77;2.43;;;;;;;;;;5051395;28;20498;-75
2023/04/06 13:22:41;;;;;;;4.75;2.55;;;;;;;;;;5052837;28;20808;-75
2023/04/06 13:25:07;;;;;;;5.13;2.80;;;;;;;;;;5052817;28;20110;-76
2023/04/06 13:27:34;;;;;;;4.60;2.80;;;;;;;;;;5052678;28;20660;-75
2023/04/06 13:29:59;;;;;;;5.38;2.80;;;;;;;;;;5052818;28;20017;-75
2023/04/06 13:32:25;;;;;;;6.28;2.80;;;;;;;;;;5052947;28;20578;-75
2023/04/06 13:34:52;;;;;;;3.70;2.40;;;;;;;;;;5053071;28;20039;-76
2023/04/06 13:37:19;;;;;;;4.03;2.30;;;;;;;;;;5053122;28;20475;-75
2023/04/06 13:39:44;;;;;;;4.55;2.60;;;;;;;;;;5052642;28;20040;-75
2023/04/06 13:42:10;;;;;;;4.60;2.70;;;;;;;;;;5052355;28;20074;-75
2023/04/06 13:44:35;;;;;;;7.72;2.10;;;;;;;;;;5052488;28;20024;-75
2023/04/06 13:47:00;;;;;;;3.30;2.03;;;;;;;;;;5052385;28;20032;-76
2023/04/06 13:49:26;;;;;;;5.95;2.15;;;;;;;;;;5051536;28;20265;-75
2023/04/06 13:51:51;;;;;;;3.58;2.40;;;;;;;;;;5052887;28;20023;-75
2023/04/06 13:54:17;;;;;;;3.03;2.30;;;;;;;;;;5052200;28;20562;-75
2023/04/06 13:56:42;;;;;;;4.78;2.50;;;;;;;;;;5050940;28;20027;-76
2023/04/06 13:59:07;;;;;;;3.40;2.13;;;;;;;;;;5053310;28;20025;-75
2023/04/06 14:01:32;;;;;;;3.20;2.23;;;;;;;;;;5054785;28;20258;-75
2023/04/06 14:03:57;;;;;;;4.93;2.43;;;;;;;;;;5054793;28;20324;-75
2023/04/06 14:06:23;;;;;;;3.55;2.50;;;;;;;;;;5056171;28;20269;-75
2023/04/06 14:08:48;;;;;;;3.67;2.40;;;;;;;;;;5056094;28;20021;-75
2023/04/06 14:11:13;;;;;;;3.47;2.40;;;;;;;;;;5055798;28;20266;-76
2023/04/06 14:13:39;;;;;;;3.40;2.45;;;;;;;;;;5056379;28;20269;-75
2023/04/06 14:16:05;;;;;;;5.15;2.55;;;;;;;;;;5055865;28;20036;-75
2023/04/06 14:18:30;;;;;;;3.08;2.28;;;;;;;;;;5054626;28;20024;-75
2023/04/06 14:20:57;;;;;;;4.30;2.58;;;;;;;;;;5055637;28;20549;-75
2023/04/06 14:23:26;;;;;;;6.50;2.55;;;;;;;;;;5056011;28;20566;-75
2023/04/06 14:25:51;;;;;;;5.65;2.50;;;;;;;;;;5055617;28;20444;-75
2023/04/06 14:28:17;;;;;;;4.13;2.38;;;;;;;;;;5055920;28;20056;-74
2023/04/06 14:30:42;;;;;;;5.25;2.40;;;;;;;;;;5055901;28;20024;-74
2023/04/06 14:33:07;;;;;;;4.07;2.50;;;;;;;;;;5055933;28;20029;-75
2023/04/06 14:35:33;;;;;;;3.55;2.45;;;;;;;;;;5055402;28;20020;-75